Time;durP1;ratioP1;P1;durP2;ratioP2;P2;SDS_P1;SDS_P2;PMS_P1;PMS_P2;Temp;Humidity;BMP_temperature;BMP_pressure;BME280_temperature;BME280_humidity;BME280_pressure;Samples;Min_cycle;Max_cycle;Signal;HPM_P1;HPM_P2
2021/12/19 00:00:20;;;;;;;;;;;0.40;99.90;;;;;;5058791;28;20003;-80
2021/12/19 00:10:24;;;;;;;;;;;0.30;99.90;;;;;;5059069;28;19951;-80
2021/12/19 00:12:51;;;;;;;;;;;0.30;99.90;;;;;;5058466;28;19917;-80
2021/12/19 00:15:16;;;;;;;;;;;0.20;99.90;;;;;;5073252;28;20296;-80
2021/12/19 00:17:42;;;;;;;;;;;0.20;99.90;;;;;;5075648;28;19913;-80
2021/12/19 00:20:07;;;;;;;;;;;0.20;99.90;;;;;;5063924;28;19909;-80
2021/12/19 00:22:33;;;;;;;;;;;0.20;99.90;;;;;;5056671;28;20003;-81
2021/12/19 00:24:58;;;;;;;;;;;0.30;99.90;;;;;;5056770;28;19909;-80
2021/12/19 00:27:24;;;;;;;;;;;0.40;99.90;;;;;;5056368;28;19916;-80
2021/12/19 00:29:49;;;;;;;;;;;0.40;99.90;;;;;;5058199;28;19909;-80
2021/12/19 00:32:15;;;;;;;;;;;0.40;99.90;;;;;;5056523;28;20373;-80
2021/12/19 00:34:40;;;;;;;;;;;0.30;99.90;;;;;;5057080;28;19924;-80
2021/12/19 00:37:06;;;;;;;;;;;0.30;99.90;;;;;;5056871;28;20392;-80
2021/12/19 00:39:31;;;;;;;;;;;0.40;99.90;;;;;;5057956;28;19909;-80
2021/12/19 00:41:57;;;;;;;;;;;0.30;99.90;;;;;;5057689;28;19909;-81
2021/12/19 00:44:24;;;;;;;;;;;0.40;99.90;;;;;;5057123;28;20310;-81
2021/12/19 00:46:53;;;;;;;;;;;0.50;99.90;;;;;;5058265;28;20366;-81
2021/12/19 00:49:22;;;;;;;;;;;0.40;99.90;;;;;;5058033;28;20206;-81
2021/12/19 00:51:48;;;;;;;;;;;0.40;99.90;;;;;;5058638;28;20277;-81
2021/12/19 00:54:14;;;;;;;;;;;0.40;99.90;;;;;;5056302;28;19913;-80
2021/12/19 00:56:42;;;;;;;;;;;0.40;99.90;;;;;;5055817;28;19915;-80
2021/12/19 00:59:08;;;;;;;;;;;0.40;99.90;;;;;;5056885;28;19909;-81
2021/12/19 01:01:35;;;;;;;;;;;0.40;99.90;;;;;;5056620;28;19955;-81
2021/12/19 01:04:01;;;;;;;;;;;0.30;99.90;;;;;;5055081;28;19916;-81
2021/12/19 01:06:28;;;;;;;;;;;0.30;99.90;;;;;;5056591;28;20390;-80
2021/12/19 01:08:54;;;;;;;;;;;0.30;99.90;;;;;;5054903;28;19909;-80
2021/12/19 01:11:20;;;;;;;;;;;0.20;99.90;;;;;;5055981;28;19913;-80
2021/12/19 01:13:45;;;;;;;;;;;0.40;99.90;;;;;;5053946;28;19940;-80
2021/12/19 01:16:11;;;;;;;;;;;0.30;99.90;;;;;;5054641;28;19959;-81
2021/12/19 01:18:37;;;;;;;;;;;0.30;99.90;;;;;;5056179;28;19948;-80
2021/12/19 01:21:02;;;;;;;;;;;0.40;99.90;;;;;;5055822;28;20484;-81
2021/12/19 01:23:28;;;;;;;;;;;0.30;99.90;;;;;;5055331;28;19908;-81
2021/12/19 01:25:53;;;;;;;;;;;0.20;99.90;;;;;;5048928;28;19910;-81
2021/12/19 01:28:19;;;;;;;;;;;0.20;99.90;;;;;;5054621;28;19909;-81
2021/12/19 01:30:45;;;;;;;;;;;0.20;99.90;;;;;;5054600;28;19956;-81
2021/12/19 01:33:11;;;;;;;;;;;0.30;99.90;;;;;;5056142;28;20272;-80
2021/12/19 01:35:36;;;;;;;;;;;0.20;99.90;;;;;;5056139;28;19913;-80
2021/12/19 01:38:02;;;;;;;;;;;0.20;99.90;;;;;;5068048;28;19955;-80
2021/12/19 01:40:28;;;;;;;;;;;0.10;99.90;;;;;;5079679;23;19931;-88
2021/12/19 01:42:54;;;;;;;;;;;0.20;99.90;;;;;;5052309;28;19913;-90
2021/12/19 01:45:31;;;;;;;;;;;0.10;99.90;;;;;;5052665;28;19912;-88
2021/12/19 01:47:58;;;;;;;;;;;0.10;99.90;;;;;;5092182;28;19938;-90
2021/12/19 01:50:23;;;;;;;;;;;0.10;99.90;;;;;;5075536;28;19947;-89
2021/12/19 01:52:49;;;;;;;;;;;0.10;99.90;;;;;;5094206;28;19915;-89
2021/12/19 01:55:15;;;;;;;;;;;0.10;99.90;;;;;;5075238;28;19916;-89
2021/12/19 01:57:40;;;;;;;;;;;0.00;99.90;;;;;;5075778;28;19908;-89
2021/12/19 02:00:07;;;;;;;;;;;0.00;99.90;;;;;;5100598;28;19938;-86
2021/12/19 02:02:33;;;;;;;;;;;0.00;99.90;;;;;;5100896;28;19925;-84
2021/12/19 02:04:58;;;;;;;;;;;0.00;99.90;;;;;;5116112;28;19913;-85
2021/12/19 02:07:25;;;;;;;;;;;0.00;99.90;;;;;;5096953;28;19912;-89
2021/12/19 02:09:51;;;;;;;;;;;0.00;99.90;;;;;;5075334;28;19908;-89
2021/12/19 02:12:17;;;;;;;;;;;-0.20;99.90;;;;;;5074623;28;20573;-88
2021/12/19 02:14:43;;;;;;;;;;;-0.20;99.90;;;;;;5074948;28;19916;-90
2021/12/19 02:17:08;;;;;;;;;;;-0.20;99.90;;;;;;5075035;28;19962;-90
2021/12/19 02:19:34;;;;;;;;;;;-0.20;99.90;;;;;;5074924;28;19951;-89
2021/12/19 02:21:59;;;;;;;;;;;-0.20;99.90;;;;;;5093047;28;19908;-90
2021/12/19 02:24:25;;;;;;;;;;;-0.20;99.90;;;;;;5074727;28;20437;-87
2021/12/19 02:26:51;;;;;;;;;;;-0.10;99.90;;;;;;5074914;28;20355;-89
2021/12/19 02:29:16;;;;;;;;;;;-0.10;99.90;;;;;;5075029;28;19933;-90
2021/12/19 02:31:42;;;;;;;;;;;-0.20;99.90;;;;;;5074900;28;20259;-88
2021/12/19 02:39:37;;;;;;;;;;;-0.10;99.90;;;;;;5092728;28;19916;-89
2021/12/19 02:50:07;;;;;;;;;;;-0.20;99.90;;;;;;5093111;28;19931;-89
2021/12/19 02:52:33;;;;;;;;;;;-0.20;99.90;;;;;;5074846;28;19908;-88
2021/12/19 02:54:58;;;;;;;;;;;-0.30;99.90;;;;;;5074650;28;19919;-90
2021/12/19 02:57:24;;;;;;;;;;;-0.20;99.90;;;;;;5074668;28;20279;-89
2021/12/19 02:59:49;;;;;;;;;;;-0.20;99.90;;;;;;5092672;28;19908;-90
2021/12/19 03:02:16;;;;;;;;;;;-0.40;99.90;;;;;;5074662;28;19954;-90
2021/12/19 03:04:52;;;;;;;;;;;-0.40;99.90;;;;;;5092544;28;19913;-89
2021/12/19 03:07:18;;;;;;;;;;;-0.40;99.90;;;;;;5074667;28;20259;-90
2021/12/19 03:10:15;;;;;;;;;;;-0.40;99.90;;;;;;5092553;28;19918;-90
2021/12/19 03:18:10;;;;;;;;;;;-0.30;99.90;;;;;;5092966;28;19915;-89
2021/12/19 03:20:37;;;;;;;;;;;-0.40;99.90;;;;;;5074300;28;19908;-91
2021/12/19 03:23:04;;;;;;;;;;;-0.30;99.90;;;;;;5077036;28;19915;-89
2021/12/19 03:25:30;;;;;;;;;;;-0.30;99.90;;;;;;5092597;28;19908;-90
2021/12/19 03:27:55;;;;;;;;;;;-0.30;99.90;;;;;;5074538;28;20019;-90
2021/12/19 03:30:21;;;;;;;;;;;-0.30;99.90;;;;;;5092486;28;19915;-89
2021/12/19 03:32:47;;;;;;;;;;;-0.40;99.90;;;;;;5074371;28;19918;-89
2021/12/19 03:35:13;;;;;;;;;;;-0.40;99.90;;;;;;5074035;28;19912;-90
2021/12/19 03:37:38;;;;;;;;;;;-0.40;99.90;;;;;;5074143;28;19990;-90
2021/12/19 03:40:10;;;;;;;;;;;-0.40;99.90;;;;;;5074579;28;19966;-90
2021/12/19 03:42:43;;;;;;;;;;;-0.40;99.90;;;;;;5074053;28;19939;-90
2021/12/19 03:45:10;;;;;;;;;;;-0.50;99.90;;;;;;5074113;28;19908;-90
2021/12/19 03:47:36;;;;;;;;;;;-0.50;99.90;;;;;;5074343;28;19908;-90
2021/12/19 03:50:04;;;;;;;;;;;-0.50;99.90;;;;;;5076049;28;20359;-90
2021/12/19 03:52:29;;;;;;;;;;;-0.40;99.90;;;;;;5077492;28;19915;-89
2021/12/19 03:54:56;;;;;;;;;;;-0.40;99.90;;;;;;5077691;28;19912;-88
2021/12/19 03:57:21;;;;;;;;;;;-0.40;99.90;;;;;;5077629;28;19915;-89
2021/12/19 03:59:48;;;;;;;;;;;-0.40;99.90;;;;;;5077737;28;19912;-90
2021/12/19 04:02:23;;;;;;;;;;;-0.40;99.90;;;;;;5095842;28;19986;-90
2021/12/19 04:04:48;;;;;;;;;;;-0.40;99.90;;;;;;5077377;28;19915;-90
2021/12/19 04:07:14;;;;;;;;;;;-0.40;99.90;;;;;;5095617;28;19908;-90
2021/12/19 04:09:39;;;;;;;;;;;-0.30;99.90;;;;;;5077450;28;19908;-90
2021/12/19 04:12:05;;;;;;;;;;;-0.40;99.90;;;;;;5077099;28;19915;-90
2021/12/19 04:14:30;;;;;;;;;;;-0.40;99.90;;;;;;5077003;28;19912;-89
2021/12/19 04:16:56;;;;;;;;;;;-0.40;99.90;;;;;;5077467;28;19908;-88
2021/12/19 04:19:21;;;;;;;;;;;-0.50;99.90;;;;;;5077345;28;19998;-90
2021/12/19 04:21:47;;;;;;;;;;;-0.60;99.90;;;;;;5077461;28;19912;-89
2021/12/19 04:24:12;;;;;;;;;;;-0.50;99.90;;;;;;5077163;28;19944;-90
2021/12/19 04:26:38;;;;;;;;;;;-0.50;99.90;;;;;;5077263;28;19908;-88
2021/12/19 04:29:03;;;;;;;;;;;-0.60;99.90;;;;;;5077029;28;20007;-90
2021/12/19 04:31:29;;;;;;;;;;;-0.60;99.90;;;;;;5095116;28;19948;-90
2021/12/19 04:33:55;;;;;;;;;;;-0.60;99.90;;;;;;5076726;28;19951;-89
2021/12/19 04:36:27;;;;;;;;;;;-0.50;99.90;;;;;;5076796;28;19908;-90
2021/12/19 04:39:20;;;;;;;;;;;-0.50;99.90;;;;;;5076352;28;19973;-88
2021/12/19 04:42:36;;;;;;;;;;;-0.50;99.90;;;;;;5076621;28;19909;-90
2021/12/19 04:50:52;;;;;;;;;;;-0.50;99.90;;;;;;5094420;28;19912;-90
2021/12/19 04:55:37;;;;;;;;;;;-0.50;99.90;;;;;;5094144;28;19951;-90
2021/12/19 04:58:21;;;;;;;;;;;-0.50;99.90;;;;;;5094339;28;19962;-90
2021/12/19 05:01:01;;;;;;;;;;;-0.40;99.90;;;;;;5075964;28;19908;-90
2021/12/19 05:06:10;;;;;;;;;;;-0.50;99.90;;;;;;5094388;28;19908;-91
2021/12/19 05:14:11;;;;;;;;;;;-0.60;99.90;;;;;;5073708;28;19919;-89
2021/12/19 05:16:39;;;;;;;;;;;-0.60;99.90;;;;;;5073881;28;19908;-89
2021/12/19 05:19:11;;;;;;;;;;;-0.70;99.90;;;;;;5056018;28;19991;-88
2021/12/19 05:21:40;;;;;;;;;;;-0.60;99.90;;;;;;5055867;28;19912;-89
2021/12/19 05:26:47;;;;;;;;;;;-0.60;99.90;;;;;;5073949;28;19908;-89
2021/12/19 05:29:13;;;;;;;;;;;-0.60;99.90;;;;;;5055758;28;19908;-89
2021/12/19 05:31:39;;;;;;;;;;;-0.60;99.90;;;;;;5055884;28;19930;-90
2021/12/19 05:34:04;;;;;;;;;;;-0.60;99.90;;;;;;5073290;28;19912;-90
2021/12/19 05:47:23;;;;;;;;;;;-0.80;99.90;;;;;;5027242;28;20366;-90
2021/12/19 05:49:49;;;;;;;;;;;-0.80;99.90;;;;;;5075580;28;20006;-90
2021/12/19 05:52:14;;;;;;;;;;;-0.70;99.90;;;;;;5093527;28;19948;-88
2021/12/19 05:54:40;;;;;;;;;;;-0.70;99.90;;;;;;5075115;28;20325;-90
2021/12/19 05:57:05;;;;;;;;;;;-0.70;99.90;;;;;;5093417;28;19908;-89
2021/12/19 05:59:31;;;;;;;;;;;-0.70;99.90;;;;;;5075663;28;20282;-89
2021/12/19 06:01:56;;;;;;;;;;;-0.60;99.90;;;;;;5093326;28;19961;-89
2021/12/19 06:04:22;;;;;;;;;;;-0.60;99.90;;;;;;5075120;28;19912;-89
2021/12/19 06:06:47;;;;;;;;;;;-0.80;99.90;;;;;;5075229;28;19908;-90
2021/12/19 06:09:13;;;;;;;;;;;-0.80;99.90;;;;;;5094413;28;19912;-90
2021/12/19 06:11:38;;;;;;;;;;;-0.80;99.90;;;;;;5096963;28;19915;-86
2021/12/19 06:14:04;;;;;;;;;;;-0.80;99.90;;;;;;5094500;28;19989;-89
2021/12/19 06:16:30;;;;;;;;;;;-0.80;99.90;;;;;;5075340;28;19915;-90
2021/12/19 06:18:55;;;;;;;;;;;-0.80;99.90;;;;;;5074929;28;19908;-90
2021/12/19 06:21:21;;;;;;;;;;;-0.90;99.90;;;;;;5093215;28;19908;-89
2021/12/19 06:23:46;;;;;;;;;;;-0.80;99.90;;;;;;5074916;28;19961;-89
2021/12/19 06:26:12;;;;;;;;;;;-0.70;99.90;;;;;;5075038;28;20112;-89
2021/12/19 06:28:38;;;;;;;;;;;-0.80;99.90;;;;;;5075016;28;19909;-89
2021/12/19 06:31:03;;;;;;;;;;;-0.80;99.90;;;;;;5093620;28;19908;-88
2021/12/19 06:33:29;;;;;;;;;;;-0.70;99.90;;;;;;5074962;28;19930;-90
2021/12/19 06:35:54;;;;;;;;;;;-0.70;99.90;;;;;;5093358;28;19912;-90
2021/12/19 06:38:20;;;;;;;;;;;-0.80;99.90;;;;;;5092961;28;20010;-90
2021/12/19 06:40:45;;;;;;;;;;;-0.70;99.90;;;;;;5074493;28;19916;-90
2021/12/19 06:43:11;;;;;;;;;;;-0.60;99.90;;;;;;5074428;28;19999;-89
2021/12/19 06:45:36;;;;;;;;;;;-0.70;99.90;;;;;;5074786;28;19916;-90
2021/12/19 06:48:02;;;;;;;;;;;-0.70;99.90;;;;;;5074665;28;19912;-89
2021/12/19 06:50:28;;;;;;;;;;;-0.80;99.90;;;;;;5092808;28;19908;-88
2021/12/19 06:52:53;;;;;;;;;;;-0.80;99.90;;;;;;5075216;28;20342;-89
2021/12/19 06:55:19;;;;;;;;;;;-0.70;99.90;;;;;;5074478;28;19912;-90
2021/12/19 06:57:45;;;;;;;;;;;-0.70;99.90;;;;;;5074984;28;19908;-89
2021/12/19 07:00:13;;;;;;;;;;;-0.70;99.90;;;;;;5074477;28;19931;-89
2021/12/19 07:02:39;;;;;;;;;;;-0.60;99.90;;;;;;5074755;28;19915;-90
2021/12/19 07:05:05;;;;;;;;;;;-0.70;99.90;;;;;;5074221;28;19908;-89
2021/12/19 07:07:31;;;;;;;;;;;-0.60;99.90;;;;;;5074467;28;20384;-89
2021/12/19 07:09:57;;;;;;;;;;;-0.70;99.90;;;;;;5074250;28;19916;-90
2021/12/19 07:12:26;;;;;;;;;;;-0.70;99.90;;;;;;5074560;28;20428;-90
2021/12/19 07:14:52;;;;;;;;;;;-0.70;99.90;;;;;;5074134;28;19951;-90
2021/12/19 07:17:18;;;;;;;;;;;-0.60;99.90;;;;;;5074662;28;19962;-90
2021/12/19 07:19:43;;;;;;;;;;;-0.60;99.90;;;;;;5074412;28;19908;-89
2021/12/19 07:22:09;;;;;;;;;;;-0.70;99.90;;;;;;5074647;28;19912;-90
2021/12/19 07:24:34;;;;;;;;;;;-0.70;99.90;;;;;;5095106;28;19908;-87
2021/12/19 07:27:00;;;;;;;;;;;-0.70;99.90;;;;;;5078641;28;19908;-90
2021/12/19 07:29:25;;;;;;;;;;;-0.70;99.90;;;;;;5097124;28;19915;-90
2021/12/19 07:31:51;;;;;;;;;;;-0.70;99.90;;;;;;5078772;28;19999;-89
2021/12/19 07:34:16;;;;;;;;;;;-0.60;99.90;;;;;;5078486;28;20005;-88
2021/12/19 07:36:49;;;;;;;;;;;-0.70;99.90;;;;;;5096870;28;19978;-90
2021/12/19 07:41:53;;;;;;;;;;;-0.60;99.90;;;;;;5096230;28;19995;-89
2021/12/19 07:44:19;;;;;;;;;;;-0.60;99.90;;;;;;5077923;28;19951;-90
2021/12/19 07:46:44;;;;;;;;;;;-0.60;99.90;;;;;;5078574;28;19908;-90
2021/12/19 07:49:10;;;;;;;;;;;-0.70;99.90;;;;;;5078581;28;19908;-89
2021/12/19 07:51:36;;;;;;;;;;;-0.80;99.90;;;;;;5078520;28;19908;-90
2021/12/19 07:54:02;;;;;;;;;;;-0.80;99.90;;;;;;5096374;28;20332;-90
2021/12/19 07:56:27;;;;;;;;;;;-0.70;99.90;;;;;;5078785;28;20366;-89
2021/12/19 07:58:53;;;;;;;;;;;-0.70;99.90;;;;;;5079509;28;19908;-89
2021/12/19 08:01:18;;;;;;;;;;;-0.70;99.90;;;;;;5078130;28;19908;-89
2021/12/19 08:03:44;;;;;;;;;;;-0.60;99.90;;;;;;5078757;28;19930;-89
2021/12/19 08:06:09;;;;;;;;;;;-0.60;99.90;;;;;;5078062;28;19908;-87
2021/12/19 08:08:35;;;;;;;;;;;-0.70;99.90;;;;;;5078552;28;19986;-89
2021/12/19 08:13:45;;;;;;;;;;;-0.70;99.90;;;;;;5097052;28;19915;-89
2021/12/19 08:16:11;;;;;;;;;;;-0.80;99.90;;;;;;5078224;28;19908;-90
2021/12/19 08:18:36;;;;;;;;;;;-0.90;99.90;;;;;;5078222;28;19922;-89
2021/12/19 08:21:02;;;;;;;;;;;-0.80;99.90;;;;;;5077944;28;19978;-88
2021/12/19 08:23:28;;;;;;;;;;;-0.70;99.90;;;;;;5077723;28;19918;-87
2021/12/19 08:25:53;;;;;;;;;;;-0.60;99.90;;;;;;5077703;28;19912;-89
2021/12/19 08:28:19;;;;;;;;;;;-0.80;99.90;;;;;;5077879;28;20309;-89
2021/12/19 08:30:45;;;;;;;;;;;-0.70;99.90;;;;;;5078179;28;20441;-89
2021/12/19 08:33:10;;;;;;;;;;;-0.70;99.90;;;;;;5078305;28;19966;-88
2021/12/19 08:35:36;;;;;;;;;;;-0.60;99.90;;;;;;5077605;28;19912;-89
2021/12/19 08:38:02;;;;;;;;;;;-0.60;99.90;;;;;;5078160;28;19908;-89
2021/12/19 08:40:28;;;;;;;;;;;-0.60;99.90;;;;;;5077527;28;19962;-90
2021/12/19 08:42:54;;;;;;;;;;;-0.60;99.90;;;;;;5077305;28;19909;-89
2021/12/19 08:45:20;;;;;;;;;;;-0.50;99.90;;;;;;5077096;28;19977;-89
2021/12/19 08:47:46;;;;;;;;;;;-0.60;99.90;;;;;;5076578;28;19908;-89
2021/12/19 08:50:12;;;;;;;;;;;-0.40;99.90;;;;;;5076849;28;19915;-89
2021/12/19 08:52:37;;;;;;;;;;;-0.60;99.90;;;;;;5076795;28;19909;-89
2021/12/19 08:55:04;;;;;;;;;;;-0.50;99.90;;;;;;5094691;28;19912;-89
2021/12/19 08:57:30;;;;;;;;;;;-0.40;99.90;;;;;;5094533;28;19961;-90
2021/12/19 08:59:55;;;;;;;;;;;-0.40;99.90;;;;;;5076723;28;20316;-89
2021/12/19 09:02:21;;;;;;;;;;;-0.40;99.90;;;;;;5076689;28;19908;-89
2021/12/19 09:04:46;;;;;;;;;;;-0.30;99.90;;;;;;5076144;28;19978;-89
2021/12/19 09:07:14;;;;;;;;;;;-0.50;99.90;;;;;;5076646;28;19908;-89
2021/12/19 09:09:39;;;;;;;;;;;-0.50;99.90;;;;;;5094606;28;19908;-88
2021/12/19 09:12:05;;;;;;;;;;;-0.30;99.90;;;;;;5094372;28;19908;-88
2021/12/19 09:14:31;;;;;;;;;;;-0.30;99.90;;;;;;5076079;28;19912;-89
2021/12/19 09:16:56;;;;;;;;;;;-0.30;99.90;;;;;;5095369;28;19909;-89
2021/12/19 09:19:22;;;;;;;;;;;-0.30;99.90;;;;;;5077513;28;19912;-88
2021/12/19 09:21:47;;;;;;;;;;;-0.30;99.90;;;;;;5090089;28;19896;-86
2021/12/19 09:24:13;;;;;;;;;;;-0.20;99.90;;;;;;5098654;28;19915;-88
2021/12/19 09:26:38;;;;;;;;;;;-0.10;99.90;;;;;;5099190;28;19915;-89
2021/12/19 09:29:04;;;;;;;;;;;-0.10;99.90;;;;;;5075872;28;19931;-88
2021/12/19 09:31:30;;;;;;;;;;;-0.20;99.90;;;;;;5075745;28;19908;-88
2021/12/19 09:33:55;;;;;;;;;;;-0.20;99.90;;;;;;5075705;28;19908;-89
2021/12/19 09:36:21;;;;;;;;;;;-0.20;99.90;;;;;;5075486;28;20063;-88
2021/12/19 09:38:48;;;;;;;;;;;-0.10;99.90;;;;;;5075517;28;20042;-88
2021/12/19 09:41:17;;;;;;;;;;;-0.10;99.90;;;;;;5075339;28;19935;-87
2021/12/19 09:43:43;;;;;;;;;;;-0.20;99.90;;;;;;5075536;28;19947;-88
2021/12/19 09:46:12;;;;;;;;;;;-0.10;99.90;;;;;;5093769;28;19908;-88
2021/12/19 09:48:39;;;;;;;;;;;0.00;99.90;;;;;;5093601;28;19908;-88
2021/12/19 09:51:05;;;;;;;;;;;-0.10;99.90;;;;;;5093566;28;19908;-88
2021/12/19 09:53:31;;;;;;;;;;;0.00;99.90;;;;;;5075362;28;19966;-88
2021/12/19 09:55:56;;;;;;;;;;;-0.30;99.90;;;;;;5093478;28;19955;-86
2021/12/19 09:58:22;;;;;;;;;;;-0.10;99.90;;;;;;5075439;28;20007;-84
2021/12/19 10:00:47;;;;;;;;;;;-0.20;99.90;;;;;;5075344;28;19916;-85
2021/12/19 10:03:15;;;;;;;;;;;-0.30;99.90;;;;;;5075699;28;19912;-86
2021/12/19 10:05:40;;;;;;;;;;;-0.20;99.90;;;;;;5075430;28;20275;-86
2021/12/19 10:08:06;;;;;;;;;;;0.00;99.90;;;;;;5093488;28;19930;-88
2021/12/19 10:10:42;;;;;;;;;;;0.00;99.90;;;;;;5093685;28;19939;-88
2021/12/19 10:13:08;;;;;;;;;;;-0.10;99.90;;;;;;5068244;28;19912;-88
2021/12/19 10:15:34;;;;;;;;;;;0.00;99.90;;;;;;5076042;28;20006;-89
2021/12/19 10:18:03;;;;;;;;;;;0.00;99.90;;;;;;5114494;28;20290;-87
2021/12/19 10:20:39;;;;;;;;;;;0.00;99.90;;;;;;5075853;28;19909;-88
2021/12/19 10:23:15;;;;;;;;;;;0.10;99.90;;;;;;5075327;28;19908;-88
2021/12/19 10:25:41;;;;;;;;;;;0.10;99.90;;;;;;5075840;28;19908;-87
2021/12/19 10:28:09;;;;;;;;;;;0.00;99.90;;;;;;5093716;28;19912;-88
2021/12/19 10:30:37;;;;;;;;;;;0.20;99.90;;;;;;5075514;28;19962;-88
2021/12/19 10:33:07;;;;;;;;;;;0.20;99.90;;;;;;5075190;28;19951;-88
2021/12/19 10:35:33;;;;;;;;;;;0.30;99.90;;;;;;5075414;28;19912;-87
2021/12/19 10:37:59;;;;;;;;;;;0.40;99.90;;;;;;5075433;28;20275;-89
2021/12/19 10:40:25;;;;;;;;;;;0.30;99.90;;;;;;5075074;28;20028;-89
2021/12/19 10:42:55;;;;;;;;;;;0.20;99.90;;;;;;5074943;28;19915;-88
2021/12/19 10:45:30;;;;;;;;;;;0.30;99.90;;;;;;5075297;28;19908;-89
2021/12/19 10:48:09;;;;;;;;;;;0.40;99.90;;;;;;5074966;28;19914;-89
2021/12/19 10:50:45;;;;;;;;;;;0.40;99.90;;;;;;5093242;28;19947;-88
2021/12/19 10:53:12;;;;;;;;;;;0.50;99.90;;;;;;5074960;28;19951;-88
2021/12/19 10:55:39;;;;;;;;;;;0.40;99.90;;;;;;5074628;28;19965;-89
2021/12/19 10:58:17;;;;;;;;;;;0.60;99.90;;;;;;5093336;28;19908;-88
2021/12/19 11:00:53;;;;;;;;;;;0.60;99.90;;;;;;5097335;28;19915;-88
2021/12/19 11:03:32;;;;;;;;;;;0.70;99.90;;;;;;5079212;28;20348;-88
2021/12/19 11:05:58;;;;;;;;;;;0.60;99.90;;;;;;5097304;28;19969;-88
2021/12/19 11:08:28;;;;;;;;;;;0.60;99.90;;;;;;5079239;28;20359;-89
2021/12/19 11:10:54;;;;;;;;;;;0.70;99.90;;;;;;5078713;28;20373;-87
2021/12/19 11:13:21;;;;;;;;;;;0.60;99.90;;;;;;5078683;28;19951;-89
2021/12/19 11:15:49;;;;;;;;;;;0.50;99.90;;;;;;5078697;28;19916;-89
2021/12/19 11:18:14;;;;;;;;;;;0.50;99.90;;;;;;5078928;28;19908;-88
2021/12/19 11:20:40;;;;;;;;;;;0.50;99.90;;;;;;5078691;28;20065;-87
2021/12/19 11:23:05;;;;;;;;;;;0.50;99.90;;;;;;5079154;28;19915;-89
2021/12/19 11:25:31;;;;;;;;;;;0.50;99.90;;;;;;5096762;28;19915;-88
2021/12/19 11:27:58;;;;;;;;;;;0.60;99.90;;;;;;5078623;28;19912;-90
2021/12/19 11:30:25;;;;;;;;;;;0.50;99.90;;;;;;5078462;28;19908;-89
2021/12/19 11:33:10;;;;;;;;;;;0.60;99.90;;;;;;5081064;28;19909;-86
2021/12/19 11:35:42;;;;;;;;;;;0.60;99.90;;;;;;5102863;28;19904;-86
2021/12/19 11:38:09;;;;;;;;;;;0.70;99.90;;;;;;5103617;28;19944;-86
2021/12/19 11:40:37;;;;;;;;;;;0.70;99.90;;;;;;5103473;28;19908;-84
2021/12/19 11:43:04;;;;;;;;;;;0.60;99.90;;;;;;5095355;28;19961;-87
2021/12/19 11:48:00;;;;;;;;;;;0.30;99.90;;;;;;5121355;28;19912;-85
2021/12/19 11:50:28;;;;;;;;;;;0.60;99.90;;;;;;5103683;28;19912;-84
2021/12/19 11:52:56;;;;;;;;;;;0.60;99.90;;;;;;5120933;28;19903;-84
2021/12/19 11:55:34;;;;;;;;;;;0.60;99.90;;;;;;5105199;28;19917;-87
2021/12/19 11:58:09;;;;;;;;;;;0.70;99.90;;;;;;5078865;28;19915;-87
2021/12/19 12:00:34;;;;;;;;;;;0.60;99.90;;;;;;5098325;28;19916;-86
2021/12/19 12:03:12;;;;;;;;;;;0.50;99.90;;;;;;5096497;28;19908;-87
2021/12/19 12:05:38;;;;;;;;;;;0.30;99.90;;;;;;5077989;28;19920;-87
2021/12/19 12:08:10;;;;;;;;;;;0.20;99.90;;;;;;5096942;28;20024;-86
2021/12/19 12:10:52;;;;;;;;;;;0.40;99.90;;;;;;5076989;28;19908;-88
2021/12/19 12:13:21;;;;;;;;;;;0.30;99.90;;;;;;5078719;28;20010;-85
2021/12/19 12:15:50;;;;;;;;;;;0.10;99.90;;;;;;5079146;28;20415;-88
2021/12/19 12:18:28;;;;;;;;;;;0.30;99.90;;;;;;5078375;28;20389;-87
2021/12/19 12:20:53;;;;;;;;;;;0.40;99.90;;;;;;5077995;28;19914;-88
2021/12/19 12:23:24;;;;;;;;;;;0.40;99.90;;;;;;5078369;28;19908;-86
2021/12/19 12:25:50;;;;;;;;;;;0.30;99.90;;;;;;5095943;28;19908;-86
2021/12/19 12:28:17;;;;;;;;;;;0.40;99.90;;;;;;5077630;28;19908;-88
2021/12/19 12:30:45;;;;;;;;;;;0.50;99.90;;;;;;5077457;28;19912;-88
2021/12/19 12:33:14;;;;;;;;;;;0.50;99.90;;;;;;5077361;28;19954;-88
2021/12/19 12:35:41;;;;;;;;;;;0.30;99.90;;;;;;5095752;28;19912;-86
2021/12/19 12:38:07;;;;;;;;;;;0.30;99.90;;;;;;5077410;28;19908;-88
2021/12/19 12:40:54;;;;;;;;;;;0.20;99.90;;;;;;5077335;28;19916;-88
2021/12/19 12:43:21;;;;;;;;;;;0.10;99.90;;;;;;5071327;28;19961;-86
2021/12/19 12:45:48;;;;;;;;;;;0.30;99.90;;;;;;5095204;28;20354;-88
2021/12/19 12:48:32;;;;;;;;;;;0.40;99.90;;;;;;5077042;28;19957;-88
2021/12/19 12:50:59;;;;;;;;;;;0.50;99.90;;;;;;5077113;28;19908;-88
2021/12/19 12:53:32;;;;;;;;;;;0.50;99.90;;;;;;5094995;28;19908;-87
2021/12/19 12:56:00;;;;;;;;;;;0.70;99.90;;;;;;5076925;28;19961;-88
2021/12/19 12:58:26;;;;;;;;;;;0.70;99.90;;;;;;5076960;28;19915;-87
2021/12/19 13:01:10;;;;;;;;;;;0.70;99.90;;;;;;5076813;28;19908;-88
2021/12/19 13:03:36;;;;;;;;;;;0.90;99.90;;;;;;5076655;28;19908;-88
2021/12/19 13:06:01;;;;;;;;;;;0.70;99.90;;;;;;5076489;28;19915;-87
2021/12/19 13:08:28;;;;;;;;;;;0.60;99.90;;;;;;5094719;28;19912;-87
2021/12/19 13:10:53;;;;;;;;;;;0.60;99.90;;;;;;5076500;28;19908;-88
2021/12/19 13:13:24;;;;;;;;;;;0.70;99.90;;;;;;5076294;28;19914;-86
2021/12/19 13:15:49;;;;;;;;;;;0.50;99.90;;;;;;5076298;28;19926;-87
2021/12/19 13:18:15;;;;;;;;;;;0.50;99.90;;;;;;5076385;28;19908;-88
2021/12/19 13:20:40;;;;;;;;;;;0.50;99.90;;;;;;5076242;28;19908;-89
2021/12/19 13:23:05;;;;;;;;;;;0.50;99.90;;;;;;5075935;28;20424;-85
2021/12/19 13:25:39;;;;;;;;;;;0.70;99.90;;;;;;5076125;28;19955;-86
2021/12/19 13:28:06;;;;;;;;;;;0.50;99.90;;;;;;5080546;28;19916;-89
2021/12/19 13:30:36;;;;;;;;;;;0.70;99.90;;;;;;5094290;28;19909;-89
2021/12/19 13:33:07;;;;;;;;;;;0.60;99.90;;;;;;5077603;28;19908;-89
2021/12/19 13:35:41;;;;;;;;;;;0.70;99.90;;;;;;5080374;28;19912;-87
2021/12/19 13:38:08;;;;;;;;;;;0.70;99.90;;;;;;5077100;28;19908;-89
2021/12/19 13:40:35;;;;;;;;;;;0.70;99.90;;;;;;5076174;28;20028;-88
2021/12/19 13:43:06;;;;;;;;;;;0.50;99.90;;;;;;5067679;28;19908;-89
2021/12/19 13:45:41;;;;;;;;;;;0.60;99.90;;;;;;5075893;28;20326;-87
2021/12/19 13:48:08;;;;;;;;;;;0.70;99.90;;;;;;5076439;28;19954;-90
2021/12/19 13:50:39;;;;;;;;;;;0.80;99.90;;;;;;5075733;28;19908;-89
2021/12/19 13:53:05;;;;;;;;;;;0.70;99.90;;;;;;5076113;28;20270;-89
2021/12/19 13:55:51;;;;;;;;;;;0.60;99.90;;;;;;5075617;28;19912;-89
2021/12/19 13:58:17;;;;;;;;;;;0.50;99.90;;;;;;5075829;28;20043;-89
2021/12/19 14:00:45;;;;;;;;;;;0.50;99.90;;;;;;5076036;28;20326;-89
2021/12/19 14:03:10;;;;;;;;;;;0.60;99.90;;;;;;5076865;28;19947;-89
2021/12/19 14:05:38;;;;;;;;;;;0.40;99.90;;;;;;5075825;28;20329;-88
2021/12/19 14:08:23;;;;;;;;;;;0.40;99.90;;;;;;5075918;28;19915;-90
2021/12/19 14:11:02;;;;;;;;;;;0.40;99.90;;;;;;5093921;28;19908;-89
2021/12/19 14:13:32;;;;;;;;;;;0.20;99.90;;;;;;5094067;28;19916;-90
2021/12/19 14:15:58;;;;;;;;;;;0.40;99.90;;;;;;5075482;28;19916;-89
2021/12/19 14:18:31;;;;;;;;;;;0.40;99.90;;;;;;5075678;28;19915;-90
2021/12/19 14:20:57;;;;;;;;;;;0.40;99.90;;;;;;5086654;28;19924;-86
2021/12/19 14:23:23;;;;;;;;;;;0.40;99.90;;;;;;5085296;28;19912;-89
2021/12/19 14:25:50;;;;;;;;;;;0.40;99.90;;;;;;5075097;28;19961;-88
2021/12/19 14:28:24;;;;;;;;;;;0.40;99.90;;;;;;5075326;28;19958;-89
2021/12/19 14:31:00;;;;;;;;;;;0.40;99.90;;;;;;5093879;28;19908;-90
2021/12/19 14:33:31;;;;;;;;;;;0.40;99.90;;;;;;5074047;28;19912;-89
2021/12/19 14:35:56;;;;;;;;;;;0.40;99.90;;;;;;5074908;28;20017;-90
2021/12/19 14:38:22;;;;;;;;;;;0.40;99.90;;;;;;5093127;28;20392;-89
2021/12/19 14:40:48;;;;;;;;;;;0.40;99.90;;;;;;5092874;28;19927;-89
2021/12/19 14:43:17;;;;;;;;;;;0.40;99.90;;;;;;5092687;28;19916;-90
2021/12/19 14:45:48;;;;;;;;;;;0.40;99.90;;;;;;5075419;28;19908;-87
2021/12/19 14:48:16;;;;;;;;;;;0.20;99.90;;;;;;5075375;28;19912;-85
2021/12/19 14:50:45;;;;;;;;;;;0.20;99.90;;;;;;5075672;28;19914;-86
2021/12/19 14:53:42;;;;;;;;;;;0.20;99.90;;;;;;5074897;28;20366;-87
2021/12/19 14:56:16;;;;;;;;;;;0.00;99.90;;;;;;5031425;28;20353;-87
2021/12/19 14:58:43;;;;;;;;;;;0.20;99.90;;;;;;5075778;28;19908;-87
2021/12/19 15:01:10;;;;;;;;;;;0.30;99.90;;;;;;5075779;28;19915;-89
2021/12/19 15:03:46;;;;;;;;;;;0.30;99.90;;;;;;5074807;28;19908;-88
2021/12/19 15:06:12;;;;;;;;;;;0.40;99.90;;;;;;5074669;28;19955;-87
2021/12/19 15:08:38;;;;;;;;;;;0.30;99.90;;;;;;5074842;28;19962;-89
2021/12/19 15:11:04;;;;;;;;;;;0.20;99.90;;;;;;5075039;28;19915;-88
2021/12/19 15:13:32;;;;;;;;;;;0.20;99.90;;;;;;5074324;28;19908;-90
2021/12/19 15:15:58;;;;;;;;;;;0.10;99.90;;;;;;5074480;28;19961;-88
2021/12/19 15:18:24;;;;;;;;;;;0.10;99.90;;;;;;5074846;28;20324;-87
2021/12/19 15:20:50;;;;;;;;;;;-0.10;99.90;;;;;;5074638;28;19908;-86
2021/12/19 15:23:17;;;;;;;;;;;-0.20;99.90;;;;;;5092478;28;19916;-89
2021/12/19 15:25:47;;;;;;;;;;;-0.10;99.90;;;;;;5074540;28;19915;-89
2021/12/19 15:28:14;;;;;;;;;;;-0.10;99.90;;;;;;5074722;28;19961;-89
2021/12/19 15:30:39;;;;;;;;;;;-0.10;99.90;;;;;;5074593;28;19908;-90